createdAt,value
2018-04-26T00:01:53.005Z,91.60
2018-04-26T00:04:21.384Z,91.40
2018-04-26T00:06:49.469Z,91.40
2018-04-26T00:09:17.521Z,91.30
2018-04-26T00:11:45.597Z,91.30
2018-04-26T00:14:13.669Z,91.50
2018-04-26T00:16:41.716Z,91.40
2018-04-26T00:19:09.833Z,91.40
2018-04-26T00:21:37.912Z,91.40
2018-04-26T00:24:05.984Z,91.50
2018-04-26T00:26:34.261Z,91.60
2018-04-26T00:29:02.333Z,91.90
2018-04-26T00:31:30.405Z,91.50
2018-04-26T00:33:58.478Z,91.90
2018-04-26T00:36:26.549Z,91.50
2018-04-26T00:38:54.605Z,91.50
2018-04-26T00:41:23.189Z,91.40
2018-04-26T00:43:51.229Z,91.50
2018-04-26T00:46:19.313Z,91.40
2018-04-26T00:48:47.724Z,91.40
2018-04-26T00:51:15.752Z,91.40
2018-04-26T00:53:43.812Z,91.40
2018-04-26T00:56:11.889Z,91.40
2018-04-26T00:58:40.157Z,91.40
2018-04-26T01:01:08.237Z,91.40
2018-04-26T01:03:36.407Z,91.40
2018-04-26T01:06:04.482Z,91.40
2018-04-26T01:08:32.543Z,91.40
2018-04-26T01:11:00.619Z,91.40
2018-04-26T01:13:28.683Z,91.30
2018-04-26T01:15:56.732Z,91.20
2018-04-26T01:18:25.882Z,91.40
2018-04-26T01:20:53.973Z,91.40
2018-04-26T01:23:22.052Z,91.40
2018-04-26T01:25:51.258Z,91.40
2018-04-26T01:28:20.112Z,91.70
2018-04-26T01:30:48.205Z,91.30
2018-04-26T01:33:16.585Z,91.20
2018-04-26T01:35:44.877Z,90.70
2018-04-26T01:38:13.737Z,91.20
2018-04-26T01:40:41.802Z,91.10
2018-04-26T01:43:09.908Z,90.30
2018-04-26T01:45:38.745Z,90.70
2018-04-26T01:48:06.837Z,90.70
2018-04-26T01:50:34.912Z,91.00
2018-04-26T01:53:02.981Z,90.20
2018-04-26T01:55:31.393Z,90.90
2018-04-26T01:58:00.253Z,90.60
2018-04-26T02:00:28.516Z,90.60
2018-04-26T02:02:56.941Z,90.80
2018-04-26T02:05:25.801Z,90.70
2018-04-26T02:07:53.886Z,90.70
2018-04-26T02:10:24.297Z,90.90
2018-04-26T02:12:52.368Z,90.90
2018-04-26T02:15:21.186Z,90.80
2018-04-26T02:17:50.082Z,90.70
2018-04-26T02:20:18.922Z,90.80
2018-04-26T02:22:47.013Z,90.70
2018-04-26T02:32:02.673Z,90.60
2018-04-26T02:34:31.513Z,90.40
2018-04-26T02:36:59.597Z,90.40
2018-04-26T02:39:27.705Z,90.40
2018-04-26T02:41:56.549Z,90.00
2018-04-26T02:44:24.607Z,89.90
2018-04-26T02:46:52.737Z,90.50
2018-04-26T02:49:21.597Z,90.50
2018-04-26T02:51:49.665Z,90.50
2018-04-26T02:54:18.967Z,90.20
2018-04-26T02:56:47.037Z,90.20
2018-04-26T02:59:15.142Z,90.50
2018-04-26T03:01:44.231Z,90.40
2018-04-26T03:04:13.121Z,90.60
2018-04-26T03:06:41.165Z,90.50
2018-04-26T03:09:09.569Z,90.60
2018-04-26T03:11:37.647Z,90.60
2018-04-26T03:14:05.885Z,90.30
2018-04-26T03:16:33.962Z,90.70
2018-04-26T03:19:02.045Z,90.70
2018-04-26T03:21:30.093Z,90.90
2018-04-26T03:23:58.172Z,90.90
2018-04-26T03:26:26.274Z,90.70
2018-04-26T03:28:54.317Z,90.60
2018-04-26T03:31:22.393Z,90.50
2018-04-26T03:33:50.476Z,90.70
2018-04-26T03:36:18.545Z,90.30
2018-04-26T03:38:46.925Z,90.10
2018-04-26T03:41:14.980Z,90.10
2018-04-26T03:43:43.053Z,90.30
2018-04-26T03:46:11.461Z,90.10
2018-04-26T03:48:39.537Z,90.00
2018-04-26T03:51:08.393Z,90.20
2018-04-26T03:53:36.469Z,90.20
2018-04-26T03:56:04.566Z,90.20
2018-04-26T03:58:32.641Z,89.50
2018-04-26T04:01:01.844Z,90.00
2018-04-26T04:03:31.541Z,90.40
2018-04-26T04:05:59.609Z,90.30
2018-04-26T04:08:27.681Z,90.20
2018-04-26T04:10:55.732Z,90.00
2018-04-26T04:13:23.832Z,90.10
2018-04-26T04:15:52.833Z,90.00
2018-04-26T04:18:20.865Z,89.60
2018-04-26T04:20:48.961Z,89.20
2018-04-26T04:23:17.416Z,90.00
2018-04-26T04:25:45.488Z,89.90
2018-04-26T04:28:14.383Z,89.20
2018-04-26T04:30:42.469Z,89.70
2018-04-26T04:33:10.549Z,88.30
2018-04-26T04:35:38.621Z,88.80
2018-04-26T04:38:06.989Z,89.00
2018-04-26T04:40:35.046Z,89.30
2018-04-26T04:43:03.117Z,88.50
2018-04-26T04:45:31.521Z,88.30
2018-04-26T04:47:59.570Z,87.40
2018-04-26T04:50:27.665Z,87.20
2018-04-26T04:52:55.819Z,87.10
2018-04-26T04:55:23.888Z,85.40
2018-04-26T04:57:52.785Z,85.50
2018-04-26T05:00:20.850Z,86.50
2018-04-26T05:02:48.912Z,84.70
2018-04-26T05:05:17.633Z,85.90
2018-04-26T05:07:45.705Z,86.00
2018-04-26T05:10:14.516Z,85.00
2018-04-26T05:12:42.955Z,84.90
2018-04-26T05:15:10.998Z,85.50
2018-04-26T05:17:39.057Z,85.10
2018-04-26T05:20:07.155Z,85.00
2018-04-26T05:22:35.256Z,85.10
2018-04-26T05:25:03.998Z,85.70
2018-04-26T05:27:32.088Z,86.00
2018-04-26T05:30:00.232Z,85.40
2018-04-26T05:32:29.051Z,83.90
2018-04-26T05:34:57.728Z,84.30
2018-04-26T05:37:26.544Z,83.40
2018-04-26T05:39:55.322Z,83.30
2018-04-26T05:42:23.980Z,83.00
2018-04-26T05:44:52.866Z,81.80
2018-04-26T05:47:21.650Z,82.30
2018-04-26T05:49:50.548Z,83.50
2018-04-26T05:52:19.328Z,83.10
2018-04-26T05:54:48.273Z,80.60
2018-04-26T05:57:17.028Z,79.90
2018-04-26T05:59:46.013Z,78.90
2018-04-26T06:02:14.421Z,77.10
2018-04-26T06:04:43.215Z,76.40
2018-04-26T06:07:12.115Z,76.50
2018-04-26T06:09:40.185Z,75.70
2018-04-26T06:12:08.284Z,75.80
2018-04-26T06:14:36.692Z,75.50
2018-04-26T06:17:04.838Z,76.00
2018-04-26T06:19:33.598Z,76.20
2018-04-26T06:22:02.704Z,76.30
2018-04-26T06:24:32.286Z,77.30
2018-04-26T06:27:00.941Z,77.30
2018-04-26T06:29:29.861Z,74.40
2018-04-26T06:31:58.520Z,72.40
2018-04-26T06:34:28.129Z,73.40
2018-04-26T06:36:57.181Z,73.50
2018-04-26T06:39:26.002Z,72.90
2018-04-26T06:41:54.884Z,73.70
2018-04-26T06:44:23.478Z,72.00
2018-04-26T06:46:52.133Z,70.50
2018-04-26T06:49:21.675Z,70.20
2018-04-26T06:51:51.336Z,70.20
2018-04-26T06:54:20.911Z,69.70
2018-04-26T06:56:49.391Z,69.70
2018-04-26T06:59:18.110Z,69.30
2018-04-26T07:01:47.513Z,68.60
2018-04-26T07:04:17.021Z,66.10
2018-04-26T07:06:45.776Z,66.30
2018-04-26T07:09:14.842Z,61.60
2018-04-26T07:11:43.483Z,58.40
2018-04-26T07:14:13.091Z,56.70
2018-04-26T07:16:42.396Z,56.40
2018-04-26T07:19:11.264Z,53.00
2018-04-26T07:21:40.158Z,53.00
2018-04-26T07:24:08.721Z,53.80
2018-04-26T07:26:37.805Z,57.50
2018-04-26T07:29:08.553Z,55.90
2018-04-26T07:31:37.537Z,57.70
2018-04-26T07:34:06.225Z,57.60
2018-04-26T07:36:35.017Z,57.50
2018-04-26T07:39:03.624Z,59.70
2018-04-26T07:41:33.868Z,58.40
2018-04-26T07:44:02.049Z,58.40
2018-04-26T07:46:31.084Z,57.30
2018-04-26T07:48:59.720Z,55.70
2018-04-26T07:51:29.182Z,54.50
2018-04-26T07:53:58.145Z,54.60
2018-04-26T07:56:27.478Z,56.80
2018-04-26T07:58:56.256Z,56.90
2018-04-26T08:01:24.960Z,57.20
2018-04-26T08:03:54.331Z,57.60
2018-04-26T08:06:23.723Z,56.70
2018-04-26T08:08:52.858Z,57.50
2018-04-26T08:11:21.557Z,56.00
2018-04-26T08:13:51.149Z,55.40
2018-04-26T08:16:19.645Z,55.20
2018-04-26T08:18:50.024Z,53.30
2018-04-26T08:21:18.666Z,51.50
2018-04-26T08:23:48.453Z,48.60
2018-04-26T08:26:16.543Z,48.60
2018-04-26T08:28:45.013Z,49.10
2018-04-26T08:31:13.593Z,47.80
2018-04-26T08:33:42.685Z,45.80
2018-04-26T08:36:11.856Z,44.30
2018-04-26T08:38:40.792Z,44.20
2018-04-26T08:41:10.565Z,45.80
2018-04-26T08:43:39.437Z,45.70
2018-04-26T08:46:08.161Z,48.20
2018-04-26T08:48:36.421Z,45.80
2018-04-26T08:51:05.029Z,43.60
2018-04-26T08:53:33.917Z,44.80
2018-04-26T08:56:02.763Z,45.40
2018-04-26T08:58:31.501Z,47.80
2018-04-26T09:01:01.113Z,44.30
2018-04-26T09:03:31.341Z,44.00
2018-04-26T09:06:00.193Z,44.00
2018-04-26T09:08:28.777Z,44.80
2018-04-26T09:10:57.352Z,44.50
2018-04-26T09:13:26.146Z,44.00
2018-04-26T09:15:56.209Z,43.90
2018-04-26T09:18:24.977Z,47.10
2018-04-26T09:20:54.393Z,46.10
2018-04-26T09:23:24.276Z,44.40
2018-04-26T09:25:53.355Z,44.00
2018-04-26T09:28:22.289Z,40.50
2018-04-26T09:30:52.585Z,40.90
2018-04-26T09:33:21.544Z,40.80
2018-04-26T09:35:50.472Z,43.70
2018-04-26T09:38:19.397Z,42.40
2018-04-26T09:40:48.888Z,40.10
2018-04-26T09:43:17.369Z,40.10
2018-04-26T09:45:46.985Z,38.20
2018-04-26T09:48:16.345Z,41.00
2018-04-26T09:50:45.163Z,40.90
2018-04-26T09:53:15.468Z,38.80
2018-04-26T09:55:44.440Z,38.80
2018-04-26T09:58:12.945Z,36.50
2018-04-26T10:00:42.644Z,36.80
2018-04-26T10:03:11.371Z,36.60
2018-04-26T10:05:40.877Z,35.30
2018-04-26T10:08:09.753Z,35.30
2018-04-26T10:10:38.419Z,37.30
2018-04-26T10:13:07.241Z,38.30
2018-04-26T10:15:36.812Z,36.10
2018-04-26T10:18:06.153Z,36.10
2018-04-26T10:20:34.629Z,35.80
2018-04-26T10:23:03.482Z,38.50
2018-04-26T10:25:32.382Z,38.40
2018-04-26T10:28:01.674Z,40.50
2018-04-26T10:30:30.778Z,39.60
2018-04-26T10:32:58.893Z,39.50
2018-04-26T10:35:28.501Z,40.20
2018-04-26T10:37:57.702Z,41.40
2018-04-26T10:40:27.033Z,41.40
2018-04-26T10:42:55.842Z,44.50
2018-04-26T10:45:24.549Z,39.80
2018-04-26T10:47:53.296Z,36.30
2018-04-26T10:50:22.307Z,37.50
2018-04-26T10:52:51.179Z,37.10
2018-04-26T10:55:20.692Z,38.20
2018-04-26T10:57:49.777Z,36.80
2018-04-26T11:00:18.619Z,34.30
2018-04-26T11:02:48.192Z,30.10
2018-04-26T11:05:17.209Z,30.10
2018-04-26T11:07:45.992Z,31.50
2018-04-26T11:10:14.589Z,33.10
2018-04-26T11:12:44.072Z,36.00
2018-04-26T11:15:12.773Z,36.00
2018-04-26T11:17:41.449Z,35.70
2018-04-26T11:20:11.031Z,31.40
2018-04-26T11:22:39.596Z,31.70
2018-04-26T11:25:08.121Z,30.60
2018-04-26T11:27:37.532Z,30.70
2018-04-26T11:30:08.037Z,31.40
2018-04-26T11:32:36.881Z,31.30
2018-04-26T11:35:06.570Z,29.00
2018-04-26T11:37:36.283Z,28.80
2018-04-26T11:40:05.677Z,29.20
2018-04-26T11:42:33.715Z,29.20
2018-04-26T11:45:02.580Z,28.00
2018-04-26T11:47:31.424Z,27.60
2018-04-26T11:50:00.830Z,27.00
2018-04-26T11:52:31.741Z,26.90
2018-04-26T11:55:00.398Z,27.00
2018-04-26T11:57:29.036Z,28.00
2018-04-26T11:59:57.900Z,27.70
2018-04-26T12:02:26.982Z,27.20
2018-04-26T12:04:55.605Z,27.40
2018-04-26T12:07:24.267Z,26.50
2018-04-26T12:09:52.953Z,26.20
2018-04-26T12:12:21.030Z,25.30
2018-04-26T12:14:49.133Z,25.80
2018-04-26T12:17:19.216Z,27.30
2018-04-26T12:19:47.949Z,27.30
2018-04-26T12:22:16.692Z,29.70
2018-04-26T12:24:45.496Z,30.30
2018-04-26T12:27:13.588Z,30.80
2018-04-26T12:29:43.166Z,33.50
2018-04-26T12:32:11.913Z,33.40
2018-04-26T12:34:40.961Z,31.50
2018-04-26T12:37:10.216Z,31.00
2018-04-26T12:39:39.049Z,29.50
2018-04-26T12:42:07.688Z,27.70
2018-04-26T12:44:36.420Z,26.80
2018-04-26T12:47:05.176Z,24.90
2018-04-26T12:49:33.249Z,26.50
2018-04-26T12:52:02.098Z,28.00
2018-04-26T12:54:30.905Z,29.20
2018-04-26T12:56:59.549Z,30.00
2018-04-26T12:59:28.396Z,28.70
2018-04-26T13:01:57.538Z,28.70
2018-04-26T13:04:27.236Z,29.50
2018-04-26T13:06:56.118Z,29.50
2018-04-26T13:09:24.861Z,28.60
2018-04-26T13:11:53.661Z,28.60
2018-04-26T13:14:21.726Z,26.60
2018-04-26T13:16:50.417Z,27.00
2018-04-26T13:19:19.401Z,26.70
2018-04-26T13:21:48.869Z,25.60
2018-04-26T13:24:18.544Z,26.60
2018-04-26T13:26:47.412Z,27.10
2018-04-26T13:29:16.348Z,26.70
2018-04-26T13:31:45.017Z,27.30
2018-04-26T13:34:13.105Z,27.00
2018-04-26T13:36:43.413Z,28.70
2018-04-26T13:39:12.173Z,28.70
2018-04-26T13:41:41.460Z,28.50
2018-04-26T13:44:10.393Z,29.30
2018-04-26T13:46:39.244Z,28.70
2018-04-26T13:49:07.872Z,29.10
2018-04-26T13:51:36.624Z,27.70
2018-04-26T13:54:05.340Z,26.60
2018-04-26T13:56:34.510Z,26.80
2018-04-26T13:59:03.720Z,28.20
2018-04-26T14:01:32.624Z,28.20
2018-04-26T14:04:01.476Z,29.60
2018-04-26T14:06:29.546Z,29.90
2018-04-26T14:09:00.961Z,30.50
2018-04-26T14:11:30.529Z,31.00
2018-04-26T14:13:59.471Z,30.80
2018-04-26T14:16:28.942Z,30.00
2018-04-26T14:18:57.520Z,29.90
2018-04-26T14:21:25.565Z,30.20
2018-04-26T14:23:53.653Z,30.00
2018-04-26T14:26:22.337Z,30.10
2018-04-26T14:28:51.937Z,29.30
2018-04-26T14:31:20.953Z,29.20
2018-04-26T14:33:49.645Z,29.20
2018-04-26T14:36:19.074Z,30.60
2018-04-26T14:38:47.900Z,29.70
2018-04-26T14:41:16.757Z,29.70
2018-04-26T14:43:46.343Z,29.30
2018-04-26T14:46:15.176Z,28.90
2018-04-26T14:48:44.185Z,28.90
2018-04-26T14:51:13.592Z,29.20
2018-04-26T14:53:41.686Z,29.20
2018-04-26T14:56:10.536Z,30.50
2018-04-26T14:58:39.453Z,29.60
2018-04-26T15:01:08.437Z,28.80
2018-04-26T15:03:37.441Z,29.50
2018-04-26T15:06:06.549Z,29.90
2018-04-26T15:08:35.476Z,31.20
2018-04-26T15:11:05.133Z,31.80
2018-04-26T15:13:33.188Z,31.70
2018-04-26T15:16:02.010Z,31.80
2018-04-26T15:18:30.596Z,32.10
2018-04-26T15:20:59.453Z,31.40
2018-04-26T15:23:27.549Z,31.40
2018-04-26T15:25:56.137Z,31.60
2018-04-26T15:28:24.193Z,32.70
2018-04-26T15:30:53.816Z,32.70
2018-04-26T15:33:21.905Z,32.60
2018-04-26T15:35:49.945Z,33.20
2018-04-26T15:38:18.545Z,33.30
2018-04-26T15:40:46.617Z,33.70
2018-04-26T15:43:15.465Z,33.00
2018-04-26T15:45:43.853Z,33.00
2018-04-26T15:48:11.937Z,33.40
2018-04-26T15:50:40.009Z,33.20
2018-04-26T15:53:08.398Z,33.70
2018-04-26T15:55:36.477Z,34.00
2018-04-26T15:58:04.571Z,32.40
2018-04-26T16:00:33.816Z,31.70
2018-04-26T16:03:01.919Z,31.90
2018-04-26T16:05:30.016Z,33.00
2018-04-26T16:08:00.197Z,33.00
2018-04-26T16:10:30.313Z,33.00
2018-04-26T16:13:00.168Z,33.20
2018-04-26T16:15:30.033Z,33.50
2018-04-26T16:17:58.113Z,33.20
2018-04-26T16:20:29.693Z,35.10
2018-04-26T16:22:58.561Z,35.00
2018-04-26T16:25:26.649Z,35.00
2018-04-26T16:27:55.041Z,35.30
2018-04-26T16:30:23.727Z,35.50
2018-04-26T16:32:54.329Z,34.70
2018-04-26T16:35:23.948Z,34.80
2018-04-26T16:37:52.961Z,35.70
2018-04-26T16:40:21.809Z,34.10
2018-04-26T16:42:49.919Z,34.10
2018-04-26T16:45:18.790Z,33.30
2018-04-26T16:47:47.561Z,33.20
2018-04-26T16:50:16.593Z,34.70
2018-04-26T16:52:45.545Z,32.40
2018-04-26T16:55:13.628Z,32.00
2018-04-26T16:57:42.009Z,31.90
2018-04-26T17:00:11.135Z,32.70
2018-04-26T17:02:40.522Z,33.50
2018-04-26T17:05:08.612Z,33.50
2018-04-26T17:07:37.472Z,33.40
2018-04-26T17:10:05.542Z,33.40
2018-04-26T17:12:33.641Z,33.60
2018-04-26T17:15:02.505Z,32.70
2018-04-26T17:17:30.600Z,32.60
2018-04-26T17:20:00.284Z,33.20
2018-04-26T17:22:28.418Z,33.10
2018-04-26T17:24:56.520Z,34.20
2018-04-26T17:27:24.641Z,34.10
2018-04-26T17:29:53.493Z,37.00
2018-04-26T17:32:21.561Z,36.90
2018-04-26T17:34:49.657Z,36.40
2018-04-26T17:37:17.725Z,37.00
2018-04-26T17:39:45.809Z,37.60
2018-04-26T17:42:14.511Z,38.50
2018-04-26T17:44:42.559Z,38.70
2018-04-26T17:47:10.605Z,38.80
2018-04-26T17:49:39.369Z,40.00
2018-04-26T17:52:08.409Z,40.80
2018-04-26T17:54:36.449Z,41.10
2018-04-26T17:57:05.272Z,41.10
2018-04-26T17:59:34.140Z,42.10
2018-04-26T18:02:02.217Z,42.00
2018-04-26T18:04:30.568Z,42.80
2018-04-26T18:06:58.665Z,43.30
2018-04-26T18:09:26.737Z,43.30
2018-04-26T18:11:54.826Z,43.70
2018-04-26T18:14:23.689Z,44.90
2018-04-26T18:16:51.773Z,44.90
2018-04-26T18:19:19.873Z,44.60
2018-04-26T18:21:50.577Z,45.50
2018-04-26T18:24:18.929Z,45.50
2018-04-26T18:26:47.009Z,46.00
2018-04-26T18:29:15.393Z,46.30
2018-04-26T18:31:43.488Z,47.00
2018-04-26T18:34:11.537Z,47.60
2018-04-26T18:36:39.937Z,48.10
2018-04-26T18:39:08.009Z,48.70
2018-04-26T18:41:36.081Z,49.30
2018-04-26T18:44:05.051Z,49.70
2018-04-26T18:46:33.117Z,50.50
2018-04-26T18:49:01.216Z,50.80
2018-04-26T18:51:29.597Z,51.20
2018-04-26T18:53:57.669Z,51.40
2018-04-26T18:56:25.741Z,51.60
2018-04-26T18:58:54.116Z,53.30
2018-04-26T19:01:22.193Z,53.50
2018-04-26T19:03:50.876Z,53.10
2018-04-26T19:06:21.393Z,53.70
2018-04-26T19:08:50.029Z,53.80
2018-04-26T19:11:20.517Z,54.30
2018-04-26T19:13:48.589Z,54.30
2018-04-26T19:16:17.581Z,54.30
2018-04-26T19:18:45.629Z,54.20
2018-04-26T19:21:13.725Z,54.00
2018-04-26T19:23:42.613Z,55.10
2018-04-26T19:26:10.664Z,54.60
2018-04-26T19:28:38.757Z,54.80
2018-04-26T19:31:06.848Z,55.00
2018-04-26T19:33:35.702Z,56.70
2018-04-26T19:36:03.793Z,56.60
2018-04-26T19:38:32.116Z,57.10
2018-04-26T19:41:00.105Z,58.10
2018-04-26T19:43:28.176Z,58.00
2018-04-26T19:45:56.262Z,57.60
2018-04-26T19:48:24.340Z,58.20
2018-04-26T19:50:52.415Z,58.30
2018-04-26T19:53:20.796Z,58.30
2018-04-26T19:55:48.864Z,58.30
2018-04-26T19:58:16.929Z,57.50
2018-04-26T20:00:45.272Z,58.00
2018-04-26T20:03:13.311Z,58.10
2018-04-26T20:05:41.513Z,58.10
2018-04-26T20:08:09.931Z,58.90
2018-04-26T20:10:37.972Z,58.90
2018-04-26T20:13:06.065Z,59.20
2018-04-26T20:15:34.385Z,60.10
2018-04-26T20:18:03.421Z,60.40
2018-04-26T20:20:31.482Z,60.40
2018-04-26T20:22:59.809Z,61.60
2018-04-26T20:25:27.881Z,61.20
2018-04-26T20:27:55.908Z,62.00
2018-04-26T20:30:24.232Z,62.20
2018-04-26T20:32:52.301Z,62.80
2018-04-26T20:35:20.325Z,62.60
2018-04-26T20:37:48.704Z,62.70
2018-04-26T20:40:16.789Z,62.70
2018-04-26T20:42:44.836Z,63.60
2018-04-26T20:45:13.281Z,63.60
2018-04-26T20:47:42.086Z,63.00
2018-04-26T20:50:10.208Z,62.90
2018-04-26T20:52:38.485Z,63.40
2018-04-26T20:55:06.633Z,63.50
2018-04-26T20:57:34.709Z,63.80
2018-04-26T21:00:03.123Z,63.00
2018-04-26T21:02:32.093Z,63.50
2018-04-26T21:05:00.181Z,62.10
2018-04-26T21:07:28.475Z,63.20
2018-04-26T21:09:56.551Z,62.90
2018-04-26T21:12:25.380Z,63.80
2018-04-26T21:14:53.477Z,63.80
2018-04-26T21:17:21.548Z,63.80
2018-04-26T21:19:49.804Z,64.50
2018-04-26T21:22:18.217Z,64.60
2018-04-26T21:24:46.289Z,65.20
2018-04-26T21:27:14.361Z,65.90
2018-04-26T21:29:42.444Z,66.20
2018-04-26T21:32:10.505Z,66.50
2018-04-26T21:34:38.572Z,67.60
2018-04-26T21:37:06.629Z,67.80
2018-04-26T21:39:34.689Z,69.80
2018-04-26T21:42:02.750Z,69.20
2018-04-26T21:44:31.240Z,68.60
2018-04-26T21:46:59.324Z,69.30
2018-04-26T21:49:27.397Z,69.50
2018-04-26T21:51:56.195Z,70.10
2018-04-26T21:54:24.257Z,70.30
2018-04-26T21:56:52.329Z,70.20
2018-04-26T21:59:20.721Z,70.00
2018-04-26T22:01:48.768Z,70.00
2018-04-26T22:04:17.443Z,69.50
2018-04-26T22:06:45.512Z,70.20
2018-04-26T22:09:13.896Z,70.20
2018-04-26T22:11:41.936Z,70.20
2018-04-26T22:14:10.460Z,70.60
2018-04-26T22:16:38.516Z,72.40
2018-04-26T22:19:06.589Z,72.40
2018-04-26T22:21:34.985Z,72.60
2018-04-26T22:24:03.065Z,72.60
2018-04-26T22:26:31.137Z,72.80
2018-04-26T22:29:00.040Z,72.60
2018-04-26T22:31:28.104Z,72.60
2018-04-26T22:33:56.889Z,72.50
2018-04-26T22:36:24.972Z,73.20
2018-04-26T22:38:53.036Z,73.40
2018-04-26T22:41:21.389Z,72.80
2018-04-26T22:43:49.472Z,74.10
2018-04-26T22:46:17.557Z,74.00
2018-04-26T22:48:45.633Z,74.20
2018-04-26T22:51:13.673Z,74.00
2018-04-26T22:53:41.757Z,74.30
2018-04-26T22:56:10.049Z,73.90
2018-04-26T22:58:38.093Z,74.10
2018-04-26T23:01:06.181Z,74.30
2018-04-26T23:03:34.269Z,74.30
2018-04-26T23:06:02.337Z,74.90
2018-04-26T23:08:30.414Z,74.60
2018-04-26T23:10:58.764Z,74.80
2018-04-26T23:13:26.816Z,74.50
2018-04-26T23:15:54.875Z,74.80
2018-04-26T23:18:23.225Z,74.70
2018-04-26T23:20:52.793Z,75.30
2018-04-26T23:23:21.047Z,75.30
2018-04-26T23:25:49.165Z,75.60
2018-04-26T23:28:17.236Z,75.40
2018-04-26T23:30:45.285Z,75.10
2018-04-26T23:33:13.668Z,75.10
2018-04-26T23:35:41.845Z,74.60
2018-04-26T23:38:09.912Z,74.90
2018-04-26T23:40:38.232Z,74.60
2018-04-26T23:43:07.113Z,75.10
2018-04-26T23:45:35.972Z,75.00
2018-04-26T23:48:04.349Z,74.90
2018-04-26T23:50:32.421Z,74.60
2018-04-26T23:53:00.514Z,74.90
2018-04-26T23:55:28.901Z,75.40
2018-04-26T23:57:56.945Z,75.20
